Time;durP1;ratioP1;P1;durP2;ratioP2;P2;SDS_P1;SDS_P2;PMS_P1;PMS_P2;Temp;Humidity;BMP_temperature;BMP_pressure;BME280_temperature;BME280_humidity;BME280_pressure;Samples;Min_cycle;Max_cycle;Signal;HPM_P1;HPM_P2
2022/08/06 00:08:09;;;;;;;0.65;0.40;;;17.00;99.90;;;;;;6705378;88;20266;-76
2022/08/06 00:18:10;;;;;;;0.70;0.40;;;16.90;99.90;;;;;;6690040;88;20701;-76
2022/08/06 00:28:10;;;;;;;3.10;0.30;;;16.80;99.90;;;;;;6687002;88;20224;-76
2022/08/06 00:38:11;;;;;;;0.60;0.30;;;16.50;99.90;;;;;;6693312;88;20240;-76
2022/08/06 00:48:13;;;;;;;0.50;0.30;;;16.40;99.90;;;;;;6688976;88;20175;-76
2022/08/06 00:58:14;;;;;;;0.60;0.30;;;16.20;99.90;;;;;;6687367;88;22944;-76
2022/08/06 01:08:14;;;;;;;0.73;0.32;;;16.10;99.90;;;;;;6685370;88;20266;-76
2022/08/06 01:18:23;;;;;;;0.60;0.30;;;15.90;99.90;;;;;;6688235;88;20274;-76
2022/08/06 01:28:30;;;;;;;0.62;0.32;;;15.60;99.90;;;;;;6687851;88;20205;-75
2022/08/06 01:38:35;;;;;;;0.77;0.37;;;15.40;99.90;;;;;;6685838;88;20209;-75
2022/08/06 01:48:39;;;;;;;0.55;0.30;;;15.30;99.90;;;;;;6688741;88;20256;-75
2022/08/06 01:58:43;;;;;;;0.60;0.30;;;15.20;99.90;;;;;;6686454;88;21006;-76
2022/08/06 02:08:45;;;;;;;0.45;0.30;;;14.90;99.90;;;;;;6688671;88;20642;-76
2022/08/06 02:18:50;;;;;;;0.88;0.30;;;14.80;99.90;;;;;;6689795;88;20704;-77
2022/08/06 02:28:53;;;;;;;0.75;0.40;;;14.60;99.90;;;;;;6689943;88;20237;-76
2022/08/06 02:38:59;;;;;;;0.60;0.30;;;14.70;99.90;;;;;;6690438;88;20722;-77
2022/08/06 02:49:08;;;;;;;0.80;0.43;;;14.40;99.90;;;;;;6689847;88;20222;-77
2022/08/06 02:59:11;;;;;;;0.70;0.30;;;14.60;99.90;;;;;;6688421;88;20187;-76
2022/08/06 03:09:14;;;;;;;0.57;0.40;;;14.40;99.90;;;;;;6691449;88;20253;-76
2022/08/06 03:19:17;;;;;;;0.70;0.40;;;14.50;99.90;;;;;;6694746;88;20240;-75
2022/08/06 03:29:18;;;;;;;1.98;0.45;;;14.40;99.90;;;;;;6689374;88;22293;-76
2022/08/06 03:39:20;;;;;;;0.43;0.30;;;14.30;99.90;;;;;;6686937;88;20194;-77
2022/08/06 03:49:30;;;;;;;0.80;0.40;;;14.00;99.90;;;;;;6690304;88;20855;-78
2022/08/06 03:59:32;;;;;;;1.20;0.50;;;14.00;99.90;;;;;;6688370;88;20195;-77
2022/08/06 04:09:33;;;;;;;0.80;0.50;;;13.80;99.90;;;;;;6688222;88;20207;-77
2022/08/06 04:19:34;;;;;;;0.68;0.28;;;13.70;99.90;;;;;;6696333;88;20629;-77
2022/08/06 04:29:40;;;;;;;1.23;0.77;;;13.60;99.90;;;;;;6693926;88;20198;-75
2022/08/06 04:39:41;;;;;;;0.80;0.50;;;13.40;99.90;;;;;;6698271;88;20170;-75
2022/08/06 04:49:41;;;;;;;1.55;0.50;;;13.40;99.90;;;;;;6704030;88;20795;-77
2022/08/06 04:59:42;;;;;;;0.70;0.37;;;13.50;99.90;;;;;;6699596;77;20202;-76
2022/08/06 05:09:43;;;;;;;0.60;0.47;;;13.60;99.90;;;;;;6721212;88;20308;-77
2022/08/06 05:19:50;;;;;;;0.88;0.43;;;13.80;99.90;;;;;;6714737;88;20193;-77
2022/08/06 05:29:50;;;;;;;1.00;0.60;;;13.90;99.90;;;;;;6714798;88;20177;-76
2022/08/06 05:39:51;;;;;;;1.08;0.50;;;14.00;99.90;;;;;;6723348;88;20670;-77
2022/08/06 05:50:14;;;;;;;4.25;0.60;;;14.00;99.90;;;;;;6719168;88;20185;-77
2022/08/06 06:00:18;;;;;;;1.40;0.68;;;14.00;99.90;;;;;;6715478;88;20737;-77
2022/08/06 06:10:22;;;;;;;1.30;0.90;;;14.30;99.90;;;;;;6716841;88;20218;-77
2022/08/06 06:20:29;;;;;;;1.40;0.68;;;15.00;99.90;;;;;;6718620;88;20200;-76
2022/08/06 06:30:56;;;;;;;1.58;0.80;;;15.70;99.90;;;;;;6715991;88;20210;-75
2022/08/06 06:41:17;;;;;;;1.30;0.52;;;16.30;99.90;;;;;;6713887;88;20207;-76
2022/08/06 06:51:29;;;;;;;1.00;0.62;;;16.90;99.90;;;;;;6721139;88;20206;-76
2022/08/06 07:01:31;;;;;;;0.80;0.40;;;17.90;99.90;;;;;;6731193;88;20240;-78
2022/08/06 07:11:33;;;;;;;1.27;0.65;;;18.40;99.90;;;;;;6714397;88;20196;-79
2022/08/06 07:21:34;;;;;;;0.60;0.40;;;18.90;99.90;;;;;;6710135;88;20197;-78
2022/08/06 07:31:36;;;;;;;1.10;0.50;;;19.50;99.90;;;;;;6713942;88;20924;-75
2022/08/06 07:41:37;;;;;;;0.90;0.47;;;20.30;99.90;;;;;;6710730;88;20760;-75
2022/08/06 07:51:43;;;;;;;0.50;0.30;;;20.50;99.90;;;;;;6714639;88;20203;-78
2022/08/06 08:01:44;;;;;;;0.62;0.40;;;21.10;99.90;;;;;;6720544;88;20174;-79
2022/08/06 08:11:47;;;;;;;0.50;0.30;;;21.30;99.90;;;;;;6724562;88;20613;-76
2022/08/06 08:21:52;;;;;;;1.33;0.40;;;21.90;99.30;;;;;;6716527;88;20166;-79
2022/08/06 08:31:56;;;;;;;0.60;0.30;;;22.40;97.20;;;;;;6716147;88;20205;-77
2022/08/06 08:42:08;;;;;;;1.15;0.40;;;23.00;96.00;;;;;;6721624;88;20835;-77
2022/08/06 08:52:16;;;;;;;0.45;0.28;;;21.90;96.00;;;;;;6722622;88;20210;-78
2022/08/06 09:02:17;;;;;;;0.60;0.30;;;21.50;95.90;;;;;;6722971;88;20238;-76
2022/08/06 09:12:19;;;;;;;1.15;0.30;;;21.60;96.40;;;;;;6723704;88;20968;-77
2022/08/06 09:22:21;;;;;;;0.40;0.20;;;22.10;95.40;;;;;;6724717;88;20628;-78
2022/08/06 09:32:41;;;;;;;0.37;0.20;;;22.60;93.10;;;;;;6719812;88;20371;-77
2022/08/06 09:42:46;;;;;;;0.77;0.35;;;24.30;86.80;;;;;;6721323;88;20194;-77
2022/08/06 09:53:04;;;;;;;0.80;0.30;;;26.10;86.60;;;;;;6715991;88;20181;-77
2022/08/06 10:03:09;;;;;;;0.60;0.40;;;25.00;84.70;;;;;;6713028;88;20351;-76
2022/08/06 10:13:24;;;;;;;0.75;0.40;;;25.50;84.30;;;;;;6715012;88;20617;-77
2022/08/06 10:23:32;;;;;;;0.80;0.30;;;26.50;83.30;;;;;;6718099;88;20215;-77
2022/08/06 10:33:40;;;;;;;0.32;0.22;;;26.90;80.10;;;;;;6714934;88;20198;-77
2022/08/06 10:43:41;;;;;;;0.57;0.30;;;28.00;77.50;;;;;;6712364;88;20182;-77
2022/08/06 10:53:45;;;;;;;1.00;0.40;;;28.60;73.30;;;;;;6715624;88;20539;-77
2022/08/06 11:04:06;;;;;;;0.50;0.30;;;27.70;75.80;;;;;;6737355;77;20170;-80
2022/08/06 11:14:10;;;;;;;0.43;0.22;;;27.90;74.20;;;;;;6722954;88;20206;-81
2022/08/06 11:24:52;;;;;;;0.70;0.40;;;27.80;70.70;;;;;;6732529;77;20240;-84
2022/08/06 11:34:52;;;;;;;0.40;0.20;;;27.40;69.20;;;;;;6724203;88;20147;-81
2022/08/06 11:45:02;;;;;;;0.80;0.40;;;28.90;70.20;;;;;;6732426;88;20195;-82
2022/08/06 11:55:06;;;;;;;0.40;0.20;;;28.70;68.70;;;;;;6695650;89;20196;-82
2022/08/06 12:05:13;;;;;;;0.50;0.30;;;29.60;66.90;;;;;;6674643;89;20664;-80
2022/08/06 12:15:20;;;;;;;0.60;0.30;;;30.60;63.80;;;;;;6701002;88;20217;-81
2022/08/06 12:25:28;;;;;;;0.57;0.30;;;29.70;64.40;;;;;;6724770;88;20211;-82
2022/08/06 12:35:29;;;;;;;0.60;0.30;;;27.60;66.80;;;;;;6705460;88;20199;-81
2022/08/06 12:45:31;;;;;;;0.55;0.30;;;29.40;64.60;;;;;;6706690;88;20190;-84
2022/08/06 13:46:30;;;;;;;0.90;0.40;;;30.60;59.70;;;;;;4816521;78;20277;-82
2022/08/06 13:56:31;;;;;;;0.60;0.37;;;30.70;60.30;;;;;;6643056;89;20991;-81
2022/08/06 14:06:31;;;;;;;0.70;0.40;;;31.10;59.30;;;;;;6634743;89;20220;-82
2022/08/06 14:16:32;;;;;;;0.70;0.30;;;31.00;59.00;;;;;;6631846;88;20196;-80
2022/08/06 14:26:32;;;;;;;0.65;0.40;;;30.40;59.50;;;;;;6640610;89;20609;-79
2022/08/06 14:36:33;;;;;;;0.73;0.40;;;30.70;58.30;;;;;;6652950;88;20237;-80
2022/08/06 14:46:34;;;;;;;0.68;0.40;;;30.00;58.50;;;;;;6644047;88;20255;-79
2022/08/06 14:56:35;;;;;;;0.77;0.43;;;28.70;59.20;;;;;;6630415;89;20202;-78
2022/08/06 15:06:35;;;;;;;0.60;0.30;;;29.40;59.00;;;;;;6635693;89;20205;-79
2022/08/06 15:16:36;;;;;;;0.60;0.30;;;28.70;59.40;;;;;;6641545;89;20675;-81
2022/08/06 15:26:37;;;;;;;0.47;0.30;;;28.60;59.20;;;;;;6639671;89;20327;-80
2022/08/06 15:36:37;;;;;;;0.50;0.30;;;28.90;59.20;;;;;;6638754;89;20210;-81
2022/08/06 15:46:38;;;;;;;0.60;0.30;;;28.60;59.90;;;;;;6635013;89;20197;-81
2022/08/06 15:56:38;;;;;;;0.62;0.30;;;28.10;60.30;;;;;;6626081;89;20203;-81
2022/08/06 16:06:39;;;;;;;0.40;0.30;;;27.50;60.70;;;;;;6645886;89;20204;-80
2022/08/06 16:16:40;;;;;;;0.60;0.30;;;27.40;60.30;;;;;;6654080;89;20193;-79
2022/08/06 16:26:40;;;;;;;0.70;0.40;;;27.40;60.50;;;;;;6637114;88;20299;-77
2022/08/06 16:36:41;;;;;;;0.60;0.30;;;27.40;60.40;;;;;;6648199;88;20247;-78
2022/08/06 16:46:43;;;;;;;0.82;0.50;;;27.00;61.80;;;;;;6630792;89;21204;-78
2022/08/06 16:56:44;;;;;;;0.60;0.30;;;26.40;60.70;;;;;;6641264;88;20208;-78
2022/08/06 17:07:25;;;;;;;0.62;0.32;;;26.10;63.30;;;;;;6664816;77;20181;-80
2022/08/06 17:17:26;;;;;;;0.85;0.40;;;25.70;64.30;;;;;;6663543;88;20245;-81
2022/08/06 17:27:26;;;;;;;0.50;0.30;;;25.60;63.80;;;;;;6644490;88;20222;-82
2022/08/06 17:37:27;;;;;;;0.75;0.30;;;26.70;62.00;;;;;;6650805;88;20204;-80
2022/08/06 17:47:28;;;;;;;0.70;0.30;;;27.40;61.90;;;;;;6642578;88;20658;-79
2022/08/06 17:57:28;;;;;;;0.53;0.30;;;26.70;61.10;;;;;;6651997;88;20266;-80
2022/08/06 18:07:29;;;;;;;1.15;0.60;;;24.40;64.20;;;;;;6645768;88;20669;-81
2022/08/06 18:17:29;;;;;;;0.45;0.30;;;23.70;64.70;;;;;;6643303;89;20583;-80
2022/08/06 18:27:30;;;;;;;1.00;0.30;;;23.30;65.60;;;;;;6644653;89;20233;-80
2022/08/06 18:37:31;;;;;;;0.35;0.20;;;23.00;66.70;;;;;;6648088;89;20263;-80
2022/08/06 18:47:32;;;;;;;1.10;0.30;;;22.60;66.30;;;;;;6643314;89;20215;-80
2022/08/06 18:57:32;;;;;;;0.30;0.20;;;22.30;67.40;;;;;;6652287;88;20158;-78
2022/08/06 19:07:33;;;;;;;0.40;0.20;;;22.00;68.40;;;;;;6646517;88;20232;-80
2022/08/06 19:17:33;;;;;;;0.70;0.40;;;21.80;70.30;;;;;;6631652;88;21042;-78
2022/08/06 19:27:34;;;;;;;0.55;0.25;;;21.60;69.50;;;;;;6637087;88;20696;-82
2022/08/06 19:37:35;;;;;;;0.40;0.20;;;21.40;69.30;;;;;;6649391;89;20193;-81
2022/08/06 19:47:37;;;;;;;0.37;0.20;;;21.10;70.00;;;;;;6655697;89;20188;-87
2022/08/06 19:57:37;;;;;;;0.65;0.30;;;20.90;70.20;;;;;;6627374;89;20215;-79
2022/08/06 20:07:38;;;;;;;0.50;0.20;;;20.70;71.10;;;;;;6621895;89;20204;-79
2022/08/06 20:17:40;;;;;;;0.60;0.30;;;20.40;72.20;;;;;;6634613;89;20223;-78
2022/08/06 20:27:42;;;;;;;0.82;0.40;;;20.10;73.20;;;;;;6633179;89;20496;-79
2022/08/06 20:37:43;;;;;;;0.90;0.37;;;19.90;74.00;;;;;;6639347;89;20203;-78
2022/08/06 20:47:47;;;;;;;0.70;0.30;;;19.70;74.60;;;;;;6644306;89;20210;-80
2022/08/06 20:57:49;;;;;;;0.82;0.40;;;19.60;75.00;;;;;;6627695;89;20695;-78
2022/08/06 21:07:52;;;;;;;0.60;0.30;;;19.40;75.40;;;;;;6629245;89;20213;-79
2022/08/06 21:17:52;;;;;;;2.22;1.37;;;19.20;77.10;;;;;;6641371;88;20180;-77
2022/08/06 21:27:53;;;;;;;1.33;0.60;;;19.00;77.60;;;;;;6620004;88;20193;-76
2022/08/06 21:37:53;;;;;;;0.70;0.30;;;18.70;78.90;;;;;;6622418;88;20653;-79
2022/08/06 21:47:54;;;;;;;0.73;0.37;;;18.50;79.60;;;;;;6619354;88;20268;-78
2022/08/06 21:57:54;;;;;;;0.80;0.47;;;18.10;80.00;;;;;;6619545;88;20635;-78
2022/08/06 22:07:55;;;;;;;0.60;0.30;;;18.00;80.60;;;;;;6625325;88;20586;-77
2022/08/06 22:17:56;;;;;;;0.70;0.37;;;17.70;81.70;;;;;;6617345;89;20177;-78
2022/08/06 22:27:57;;;;;;;0.73;0.40;;;17.30;82.80;;;;;;6618159;89;20762;-78
2022/08/06 22:38:03;;;;;;;0.88;0.40;;;17.20;84.20;;;;;;6628595;88;20198;-78
2022/08/06 22:48:04;;;;;;;0.80;0.40;;;17.00;84.50;;;;;;6619579;89;20622;-77
2022/08/06 22:58:06;;;;;;;0.75;0.30;;;16.80;85.80;;;;;;6624723;88;20373;-77
2022/08/06 23:08:06;;;;;;;1.23;0.40;;;16.70;86.60;;;;;;6622204;78;20217;-76
2022/08/06 23:18:07;;;;;;;0.50;0.20;;;16.70;88.40;;;;;;6625778;88;20352;-76
2022/08/06 23:28:08;;;;;;;0.65;0.37;;;16.50;89.60;;;;;;6627999;88;20202;-75
2022/08/06 23:38:08;;;;;;;0.57;0.30;;;16.50;90.40;;;;;;6632518;88;20343;-75
2022/08/06 23:48:09;;;;;;;0.55;0.20;;;16.30;91.20;;;;;;6621709;88;20646;-74
2022/08/06 23:58:09;;;;;;;0.95;0.52;;;16.00;92.00;;;;;;6624551;88;20208;-76
